METAR UND TAF INFORMATION
VTBS 241230Z 21009KT 9999 FEW020 30/24 Q1006 NOSIG

 FLUGHAFENKARTE

 RUNWAY INFORMATION
Runway 01L Runway length 12139 ft Runway width 197 ft
Runway elevation 0 ft Runway displaced threshold 0 ft Runway heading 14
Runway 19R Runway length 12139 ft Runway width 197 ft
Runway elevation 0 ft Runway displaced threshold 0 ft Runway heading 194
Runway 01R Runway length 13123 ft Runway width 197 ft
Runway elevation 0 ft Runway displaced threshold 0 ft Runway heading 14
Runway 19L Runway length 13123 ft Runway width 197 ft
Runway elevation 0 ft Runway displaced threshold 0 ft Runway heading 194

 AIRPORT FREQUENCIES
Type ATIS Name Frequency 127.8 MHZ
Type GROUND (EA Name Frequency 121.65 MHZ
Type GROUND (MA Name Frequency 121.75 MHZ
Type GROUND (WE Name Frequency 121.95 MHZ
Type TOWER (01L Name Frequency 119 MHZ
Type TOWER (01R Name Frequency 118.2 MHZ

 AIRPORT NEAR NAVIGATION AIDS
Type VOR-DME Name Suvarnabhumi Intl Frequency 111400 KHZ